Shannon Dann — WCD6367 — position and weather

sailwx.info

Track history (hours):
 
Tides and Currents Weather Stations Pressure Air Temp Water Temp Dewpoint Dewpoint Depression Visibility Wind Speed Wind Dir Waves Ship Positions

Shannon Dann

Owner: Dann Ocean Towing, TAMPA, FL. More information available from US FCC via Universal Licensing System and Coast Guard Vessel Documentation Center.

Last reported at 2017-Nov-19 05:00 UTC. Time now 2017-Nov-19 05:08 UTC.
Position N 40°39' W 074°09'.

Length 30 m; draft 4 m.

Type: Tow > 200 m length. MMSI: 338533000.

Date/timePositionNaut miles runAvg speedWind from/ knotsBaromVisibWave heightAir tempDewpointWater temp
2017-Nov-19 05:00N 40°39' W 074°09'2 4.1
2017-Nov-19 04:30N 40°39' W 074°06'2 4.8
2017-Nov-19 04:00N 40°40' W 074°03'3 6.6
2017-Nov-19 03:31N 40°42' W 074°00'3 6.4
2017-Nov-19 03:00N 40°45' W 073°58'3 6.6
2017-Nov-19 02:30N 40°47' W 073°55'3 5.4
2017-Nov-19 02:00N 40°48' W 073°52'3 6.3
2017-Nov-19 01:28N 40°48' W 073°47'56 6.3
2017-Nov-18 16:35N 41°07' W 072°37'1 6.5
2017-Nov-18 16:30N 41°07' W 072°37'3 6.5
2017-Nov-18 15:59N 41°08' W 072°32'3 7.0
2017-Nov-18 15:31N 41°09' W 072°28'4 7.1
2017-Nov-18 15:00N 41°11' W 072°24'4 8.0
2017-Nov-18 14:30N 41°12' W 072°19'95 4.5
2017-Nov-17 17:12N 42°17' W 070°44'1 7.5
2017-Nov-17 17:00N 42°17' W 070°46'4 7.6
2017-Nov-17 16:30N 42°19' W 070°51'4 7.4
2017-Nov-17 16:00N 42°19' W 070°56'4 6.0
2017-Nov-17 15:22N 42°20' W 071°01'2 6.2
2017-Nov-17 15:00N 42°22' W 071°03'0 0.6
2017-Nov-17 14:31N 42°22' W 071°03'0 0.0
2017-Nov-17 14:00N 42°22' W 071°03'0 0.0
2017-Nov-17 13:30N 42°22' W 071°03'0 0.0
2017-Nov-17 13:00N 42°22' W 071°03'0 0.0
2017-Nov-17 12:31N 42°22' W 071°03'0 0.0
2017-Nov-17 12:00N 42°22' W 071°03'0 0.0
2017-Nov-17 11:30N 42°22' W 071°03'0 0.0
2017-Nov-17 11:00N 42°22' W 071°03'0 0.0
2017-Nov-17 10:30N 42°22' W 071°03'0 0.0
2017-Nov-17 10:00N 42°22' W 071°03'0 0.0
2017-Nov-17 09:30N 42°22' W 071°03'0 0.0
2017-Nov-17 09:00N 42°22' W 071°03'0 0.0
2017-Nov-17 08:30N 42°22' W 071°03'0 0.0
2017-Nov-17 08:00N 42°22' W 071°03'0 0.0
2017-Nov-17 07:30N 42°22' W 071°03'0 0.0
2017-Nov-17 07:00N 42°22' W 071°03'0 0.0
2017-Nov-17 06:30N 42°22' W 071°03'0 0.0
2017-Nov-17 06:01N 42°22' W 071°03'0 0.0
2017-Nov-17 05:31N 42°22' W 071°03'0 0.0
2017-Nov-17 05:00N 42°22' W 071°03'0 0.0
2017-Nov-17 04:31N 42°22' W 071°03'0 0.0
2017-Nov-17 04:00N 42°22' W 071°03'0 0.0
2017-Nov-17 03:31N 42°22' W 071°03'0 0.0
2017-Nov-17 03:00N 42°22' W 071°03'0 0.0
2017-Nov-17 02:31N 42°22' W 071°03'0 0.0
2017-Nov-17 02:00N 42°22' W 071°03'0 0.0
2017-Nov-17 01:30N 42°22' W 071°03'0 0.0
2017-Nov-17 01:00N 42°22' W 071°03'0 0.0
2017-Nov-17 00:30N 42°22' W 071°03'0 0.0
2017-Nov-17 00:00N 42°22' W 071°03'0 0.9
2017-Nov-16 23:31N 42°23' W 071°03'0 0.0
2017-Nov-16 22:20N 42°23' W 071°03'0 0.7
2017-Nov-16 22:01N 42°23' W 071°03'0 0.0
2017-Nov-16 21:30N 42°23' W 071°03'0 0.0
2017-Nov-16 21:01N 42°23' W 071°03'0 0.0
2017-Nov-16 20:30N 42°23' W 071°03'0 0.0
2017-Nov-16 20:01N 42°23' W 071°03'0 0.3
2017-Nov-16 19:30N 42°22' W 071°03'0 0.0
2017-Nov-16 19:01N 42°22' W 071°03'0 0.1
2017-Nov-16 18:31N 42°22' W 071°03'0 0.0
2017-Nov-16 18:00N 42°22' W 071°03'0 0.0
2017-Nov-16 17:30N 42°22' W 071°03'0 0.0
2017-Nov-16 17:01N 42°22' W 071°03'0 0.0
2017-Nov-16 16:30N 42°22' W 071°03'0 0.0
2017-Nov-16 16:00N 42°22' W 071°03'0 0.0
2017-Nov-16 15:31N 42°22' W 071°03'0 0.0
2017-Nov-16 14:57N 42°22' W 071°03'0 0.0
2017-Nov-16 14:30N 42°22' W 071°03'0 0.0
2017-Nov-16 14:00N 42°22' W 071°03'0 0.0
2017-Nov-16 13:30N 42°22' W 071°03'0 0.0
2017-Nov-16 13:00N 42°22' W 071°03'0 0.0
2017-Nov-16 12:30N 42°22' W 071°03'0 0.0
2017-Nov-16 12:00N 42°22' W 071°03'0 0.0
2017-Nov-16 11:25N 42°22' W 071°03'0 0.0
2017-Nov-16 11:00N 42°22' W 071°03'0 0.0
2017-Nov-16 10:30N 42°22' W 071°03'0 0.0
2017-Nov-16 10:00N 42°22' W 071°03'0 0.0
2017-Nov-16 09:30N 42°22' W 071°03'0 0.0
2017-Nov-16 09:01N 42°22' W 071°03'0 0.0
2017-Nov-16 08:31N 42°22' W 071°03'0 0.0
2017-Nov-16 07:59N 42°22' W 071°03'0 0.0
2017-Nov-16 07:30N 42°22' W 071°03'0 0.0
2017-Nov-16 07:00N 42°22' W 071°03'0 0.0
2017-Nov-16 06:31N 42°22' W 071°03'0 0.0
2017-Nov-16 06:00N 42°22' W 071°03'0 0.0
2017-Nov-16 05:31N 42°22' W 071°03'0 0.0
2017-Nov-16 05:01N 42°22' W 071°03'0 0.0
2017-Nov-16 04:31N 42°22' W 071°03'0 0.0
2017-Nov-16 04:01N 42°22' W 071°03'0 0.0
2017-Nov-16 03:30N 42°22' W 071°03'0 0.0
2017-Nov-16 03:00N 42°22' W 071°03'0 0.0
2017-Nov-16 02:30N 42°22' W 071°03'0 0.0
2017-Nov-16 02:00N 42°22' W 071°03'0 0.0
2017-Nov-16 01:30N 42°22' W 071°03'0 0.0
2017-Nov-16 01:00N 42°22' W 071°03'0 0.0
2017-Nov-16 00:31N 42°22' W 071°03'0 0.2
2017-Nov-16 00:00N 42°22' W 071°03'0 0.2
2017-Nov-15 23:30N 42°22' W 071°03'0 0.1
2017-Nov-15 23:01N 42°22' W 071°03'0 0.6
2017-Nov-15 22:30N 42°23' W 071°03'0 0.1
2017-Nov-15 21:43N 42°23' W 071°03'0 0.0
2017-Nov-15 21:24N 42°23' W 071°03'0 0.0
2017-Nov-15 20:17N 42°23' W 071°03'0 0.0
2017-Nov-15 19:51N 42°23' W 071°03'0 1.4
2017-Nov-15 19:30N 42°22' W 071°03'0 0.0
2017-Nov-15 19:00N 42°22' W 071°03'0 0.0
2017-Nov-15 18:30N 42°22' W 071°03'0 0.2
2017-Nov-15 18:00N 42°22' W 071°03'0 0.0
2017-Nov-15 17:31N 42°22' W 071°03'0 0.3
2017-Nov-15 16:26N 42°23' W 071°03'0 0.0
2017-Nov-15 15:58N 42°23' W 071°03'0 0.9
2017-Nov-15 15:30N 42°23' W 071°03'0 0.0
2017-Nov-15 14:58N 42°23' W 071°03'0 0.0
2017-Nov-15 14:28N 42°23' W 071°03'0 0.0
2017-Nov-15 14:00N 42°23' W 071°03'0 0.0
2017-Nov-15 13:29N 42°23' W 071°03'0 0.0
2017-Nov-15 12:59N 42°23' W 071°03'1 1.4
2017-Nov-15 12:31N 42°22' W 071°03'0 0.1
2017-Nov-15 12:00N 42°22' W 071°03'0 0.2
2017-Nov-15 11:30N 42°22' W 071°03'0 0.2
2017-Nov-15 11:00N 42°22' W 071°03'0 0.0
2017-Nov-15 10:30N 42°22' W 071°03'0 0.0
2017-Nov-15 10:00N 42°22' W 071°03'0 0.0
2017-Nov-15 09:31N 42°22' W 071°03'0 0.0
2017-Nov-15 09:00N 42°22' W 071°03'0 0.0
2017-Nov-15 08:30N 42°22' W 071°03'0 0.0
2017-Nov-15 08:01N 42°22' W 071°03'0 0.0
2017-Nov-15 07:30N 42°22' W 071°03'0 0.0
2017-Nov-15 07:00N 42°22' W 071°03'0 0.0
2017-Nov-15 06:30N 42°22' W 071°03'0 0.0
2017-Nov-15 06:00N 42°22' W 071°03'0 0.0
2017-Nov-15 05:30N 42°22' W 071°03'0 0.2
2017-Nov-15 05:00N 42°22' W 071°03'0 0.0
2017-Nov-15 04:31N 42°22' W 071°03'0 0.0
2017-Nov-15 04:00N 42°22' W 071°03'1 2.2
2017-Nov-15 03:30N 42°21' W 071°02'1 1.1
2017-Nov-15 02:58N 42°21' W 071°02'2 3.5
2017-Nov-15 02:30N 42°22' W 071°03'0 0.0
2017-Nov-15 02:00N 42°22' W 071°03'0 0.1
2017-Nov-15 01:31N 42°22' W 071°03'0 0.2
2017-Nov-15 01:00N 42°22' W 071°03'0 0.0
2017-Nov-15 00:31N 42°22' W 071°03'0 0.0
2017-Nov-15 00:00N 42°22' W 071°03'0 0.0
2017-Nov-14 23:31N 42°22' W 071°03'0 0.0
2017-Nov-14 23:00N 42°22' W 071°03'0 0.0
2017-Nov-14 22:30N 42°22' W 071°03'0 0.1
2017-Nov-14 22:00N 42°23' W 071°03'0 0.1
2017-Nov-14 19:22N 42°23' W 071°03'0 0.0
2017-Nov-14 18:03N 42°23' W 071°03'0 0.0
2017-Nov-14 17:59N 42°23' W 071°03'0 0.1
2017-Nov-14 16:38N 42°23' W 071°03'0 1.2
2017-Nov-14 16:30N 42°23' W 071°03'0 0.4
2017-Nov-14 16:00N 42°22' W 071°03'0 0.0
2017-Nov-14 15:30N 42°22' W 071°03'0 0.3
2017-Nov-14 15:00N 42°23' W 071°03'0 0.1
2017-Nov-14 14:30N 42°23' W 071°03'0 0.0
2017-Nov-14 13:57N 42°23' W 071°03'0 0.2
2017-Nov-14 13:30N 42°22' W 071°03'0 0.0
2017-Nov-14 13:00N 42°22' W 071°03'0 0.0
2017-Nov-14 12:30N 42°22' W 071°03'0 0.0
2017-Nov-14 12:00N 42°22' W 071°03'0 0.0
2017-Nov-14 11:31N 42°22' W 071°03'0 0.0
2017-Nov-14 11:01N 42°22' W 071°03'0 0.0
2017-Nov-14 10:30N 42°22' W 071°03'0 0.0
2017-Nov-14 10:00N 42°22' W 071°03'0 0.0
2017-Nov-14 09:30N 42°22' W 071°03'0 0.0
2017-Nov-14 09:00N 42°22' W 071°03'0 0.0
2017-Nov-14 08:30N 42°22' W 071°03'0 0.0
2017-Nov-14 08:01N 42°22' W 071°03'0 0.0
2017-Nov-14 07:30N 42°22' W 071°03'0 0.0
2017-Nov-14 07:00N 42°22' W 071°03'0 0.0
2017-Nov-14 06:30N 42°22' W 071°03'0 0.0
2017-Nov-14 06:00N 42°22' W 071°03'0 0.0
2017-Nov-14 05:30N 42°22' W 071°03'0 0.0
2017-Nov-14 05:00N 42°22' W 071°03'0 0.1
2017-Nov-14 04:30N 42°22' W 071°03'0 0.0
2017-Nov-14 04:00N 42°22' W 071°03'0 0.0
2017-Nov-14 03:30N 42°22' W 071°03'0 0.0
2017-Nov-14 03:00N 42°22' W 071°03'0 0.0
2017-Nov-14 02:30N 42°22' W 071°03'0 0.0
2017-Nov-14 02:00N 42°22' W 071°03'0 0.0
2017-Nov-14 01:30N 42°22' W 071°03'0 0.0
2017-Nov-14 01:00N 42°22' W 071°03'0 0.1
2017-Nov-14 00:30N 42°22' W 071°03'0 0.0
2017-Nov-14 00:00N 42°22' W 071°03'0 0.0
2017-Nov-13 23:31N 42°22' W 071°03'0 0.0
2017-Nov-13 23:00N 42°22' W 071°03'0 0.0
2017-Nov-13 22:30N 42°22' W 071°03'0 0.0
2017-Nov-13 22:00N 42°22' W 071°03'0 0.0
2017-Nov-13 02:00N 42°22' W 071°03'1 1.9
2017-Nov-13 01:26N 42°21' W 071°02'0 0.1
2017-Nov-13 01:00N 42°21' W 071°02'0 0.0
2017-Nov-13 00:30N 42°21' W 071°02'0 0.0
2017-Nov-12 23:57N 42°21' W 071°02'0 0.0
2017-Nov-12 23:29N 42°21' W 071°02'0 0.0
2017-Nov-12 22:57N 42°21' W 071°02'0 0.0
2017-Nov-12 22:30N 42°21' W 071°02'0 0.0
2017-Nov-12 22:00N 42°21' W 071°02'0 0.5
2017-Nov-12 21:03N 42°21' W 071°02'0 0.3
2017-Nov-12 20:58N 42°21' W 071°02'0 0.2
2017-Nov-12 20:28N 42°21' W 071°02'1 1.3
2017-Nov-12 20:00N 42°21' W 071°02'0 0.1
2017-Nov-12 19:27N 42°21' W 071°02'0 0.1
2017-Nov-12 19:00N 42°21' W 071°02'0 0.0
2017-Nov-12 18:30N 42°21' W 071°02'0 0.1
2017-Nov-12 18:00N 42°21' W 071°02'0 0.0
2017-Nov-12 17:30N 42°21' W 071°02'0 0.0
2017-Nov-12 17:00N 42°21' W 071°02'0 0.7
2017-Nov-12 16:28N 42°21' W 071°02'0 0.3
2017-Nov-12 15:56N 42°21' W 071°02'0 0.6
2017-Nov-12 15:14N 42°21' W 071°02'0 0.0
2017-Nov-12 14:55N 42°21' W 071°02'0 0.0
2017-Nov-12 14:26N 42°21' W 071°02'0 0.0
2017-Nov-12 13:57N 42°21' W 071°02'0 0.0
2017-Nov-12 13:30N 42°21' W 071°02'0 0.0
2017-Nov-12 12:58N 42°21' W 071°02'0 0.2
2017-Nov-12 12:29N 42°21' W 071°02'0 0.0
2017-Nov-12 12:00N 42°21' W 071°02'0 0.0
2017-Nov-12 11:29N 42°21' W 071°02'0 0.0
2017-Nov-12 10:59N 42°21' W 071°02'0 0.1
2017-Nov-12 10:29N 42°21' W 071°02'0 0.0
2017-Nov-12 10:00N 42°21' W 071°02'0 0.0
2017-Nov-12 09:30N 42°21' W 071°02'0 0.0
2017-Nov-12 09:00N 42°21' W 071°02'0 0.0
2017-Nov-12 08:30N 42°21' W 071°02'0 0.0
2017-Nov-12 08:00N 42°21' W 071°02'0 0.0
2017-Nov-12 07:29N 42°21' W 071°02'0 0.2
2017-Nov-12 06:58N 42°21' W 071°02'0 0.2
2017-Nov-12 06:30N 42°21' W 071°02'0 0.0
2017-Nov-12 06:00N 42°21' W 071°02'0 0.1
2017-Nov-12 05:30N 42°21' W 071°02'0 0.1
2017-Nov-12 05:00N 42°21' W 071°02'0 0.0
2017-Nov-12 04:30N 42°21' W 071°02'0 0.0
2017-Nov-12 04:00N 42°21' W 071°02'0 0.0
2017-Nov-12 03:30N 42°21' W 071°02'0 0.0
2017-Nov-12 03:00N 42°21' W 071°02'0 0.0
2017-Nov-12 02:30N 42°21' W 071°02'0 0.0
2017-Nov-12 02:00N 42°21' W 071°02'0 0.0
2017-Nov-12 01:30N 42°21' W 071°02'0 0.0
2017-Nov-12 01:00N 42°21' W 071°02'0 0.0
2017-Nov-12 00:30N 42°21' W 071°02'0 0.0
2017-Nov-12 00:00N 42°21' W 071°02'0 0.1
2017-Nov-11 23:30N 42°21' W 071°02'1 2.0
2017-Nov-11 22:59N 42°22' W 071°03'0 0.4
2017-Nov-11 22:30N 42°22' W 071°03'0 0.9
2017-Nov-11 22:00N 42°22' W 071°03'1 2.1
2017-Nov-11 21:30N 42°21' W 071°02'0 0.5
2017-Nov-11 21:00N 42°21' W 071°02'0 0.0
2017-Nov-11 20:31N 42°21' W 071°02'0 0.0
2017-Nov-11 19:52N 42°21' W 071°02'0 0.0
2017-Nov-11 19:30N 42°21' W 071°02'0 0.0
2017-Nov-11 18:35N 42°21' W 071°02'0 0.1
2017-Nov-11 18:29N 42°21' W 071°02'0 0.0
2017-Nov-11 18:00N 42°21' W 071°02'0 0.0
2017-Nov-11 17:18N 42°21' W 071°02'0 0.1
2017-Nov-11 16:21N 42°21' W 071°02'1 3.3
2017-Nov-11 16:00N 42°22' W 071°03'0 0.0
2017-Nov-11 15:30N 42°22' W 071°03'1 1.7
2017-Nov-11 14:50N 42°21' W 071°02'1 2.7
2017-Nov-11 14:31N 42°22' W 071°03'1 1.6
2017-Nov-11 14:00N 42°23' W 071°03'0 0.7
2017-Nov-11 13:30N 42°22' W 071°03'0 0.0
2017-Nov-11 13:00N 42°22' W 071°03'0 0.0
2017-Nov-11 12:31N 42°22' W 071°03'0 0.0
2017-Nov-11 12:00N 42°22' W 071°03'0 0.0
2017-Nov-11 11:30N 42°22' W 071°03'0 0.0
2017-Nov-11 11:00N 42°22' W 071°03'0 0.0
2017-Nov-11 10:30N 42°22' W 071°03'0 0.0
2017-Nov-11 10:00N 42°22' W 071°03'0 0.0
2017-Nov-11 09:30N 42°22' W 071°03'0 0.0
2017-Nov-11 09:00N 42°22' W 071°03'0 0.0
2017-Nov-11 08:31N 42°22' W 071°03'0 0.0
2017-Nov-11 07:59N 42°22' W 071°03'0 0.0
2017-Nov-11 07:31N 42°22' W 071°03'0 0.0
2017-Nov-11 07:00N 42°22' W 071°03'0 0.0
2017-Nov-11 06:30N 42°22' W 071°03'0 0.0
2017-Nov-11 06:00N 42°22' W 071°03'0 0.0
2017-Nov-11 05:30N 42°22' W 071°03'0 0.0
2017-Nov-11 05:00N 42°22' W 071°03'0 0.0
2017-Nov-11 04:31N 42°22' W 071°03'0 0.0
2017-Nov-11 04:00N 42°22' W 071°03'0 0.0
2017-Nov-11 03:30N 42°22' W 071°03'0 0.0
2017-Nov-11 03:00N 42°22' W 071°03'0 0.0
2017-Nov-11 02:30N 42°22' W 071°03'0 0.5
2017-Nov-11 01:59N 42°23' W 071°03'0 0.4
2017-Nov-11 01:20N 42°22' W 071°03'0 0.0
2017-Nov-11 01:00N 42°22' W 071°03'0 0.0
2017-Nov-11 00:30N 42°22' W 071°03'0 0.0
2017-Nov-11 00:00N 42°22' W 071°03'0 0.0
2017-Nov-10 23:30N 42°22' W 071°03'0 0.0
2017-Nov-10 23:00N 42°22' W 071°03'0 0.0
2017-Nov-10 22:30N 42°22' W 071°03'0 0.0
2017-Nov-10 22:00N 42°22' W 071°03'0 0.0
2017-Nov-10 21:30N 42°22' W 071°03'0 0.6
2017-Nov-10 20:59N 42°23' W 071°03'0 0.6
2017-Nov-10 20:30N 42°22' W 071°03'0 0.0
2017-Nov-10 20:00N 42°22' W 071°03'0 0.0
2017-Nov-10 19:30N 42°22' W 071°03'0 0.0
2017-Nov-10 19:00N 42°22' W 071°03'0 0.0
2017-Nov-10 18:30N 42°22' W 071°03'0 0.0
2017-Nov-10 18:00N 42°22' W 071°03'0 0.2
2017-Nov-10 17:30N 42°23' W 071°03'0 0.3
2017-Nov-10 16:58N 42°23' W 071°03'0 0.0
2017-Nov-10 16:29N 42°23' W 071°03'0 0.0
2017-Nov-10 15:48N 42°23' W 071°03'0 0.0
2017-Nov-10 15:30N 42°23' W 071°03'0 0.1
2017-Nov-10 14:58N 42°23' W 071°03'0 0.1
2017-Nov-10 14:30N 42°23' W 071°03'0 0.0
2017-Nov-10 14:00N 42°23' W 071°03'0 0.0
2017-Nov-10 13:21N 42°23' W 071°03'0 0.0
2017-Nov-10 12:42N 42°23' W 071°03'0 0.3
2017-Nov-10 12:30N 42°23' W 071°03'0 0.6
2017-Nov-10 12:01N 42°22' W 071°03'0 0.0
2017-Nov-10 11:30N 42°22' W 071°03'0 0.0
2017-Nov-10 11:00N 42°22' W 071°03'0 0.0
2017-Nov-10 10:30N 42°22' W 071°03'0 0.0
2017-Nov-10 10:00N 42°22' W 071°03'0 0.0
2017-Nov-10 09:30N 42°22' W 071°03'0 0.0
2017-Nov-10 09:01N 42°22' W 071°03'0 0.0
2017-Nov-10 08:30N 42°22' W 071°03'0 0.0
2017-Nov-10 08:00N 42°22' W 071°03'0 0.0
2017-Nov-10 07:30N 42°22' W 071°03'0 0.0
2017-Nov-10 07:00N 42°22' W 071°03'0 0.0
2017-Nov-10 06:30N 42°22' W 071°03'0 0.0
2017-Nov-10 06:00N 42°22' W 071°03'0 0.0
2017-Nov-10 05:30N 42°22' W 071°03'0 0.0
2017-Nov-10 05:00N 42°22' W 071°03'0 0.0
2017-Nov-10 04:30N 42°22' W 071°03'0 0.0
2017-Nov-10 04:00N 42°22' W 071°03'0 0.0
2017-Nov-10 03:30N 42°22' W 071°03'0 0.0
2017-Nov-10 03:00N 42°22' W 071°03'0 0.0
2017-Nov-10 02:31N 42°22' W 071°03'0 0.2
2017-Nov-10 02:00N 42°23' W 071°03'0 0.0
2017-Nov-10 01:30N 42°22' W 071°03'0 0.0
2017-Nov-10 01:00N 42°22' W 071°03'0 0.1
2017-Nov-10 00:30N 42°22' W 071°03'0 0.0
2017-Nov-10 00:00N 42°22' W 071°03'0 0.0
2017-Nov-09 23:30N 42°22' W 071°03'0 0.0
2017-Nov-09 23:00N 42°22' W 071°03'0 0.2
2017-Nov-09 22:30N 42°22' W 071°03'0 0.1
2017-Nov-09 22:00N 42°22' W 071°03'0 0.1
2017-Nov-09 21:30N 42°22' W 071°03'1 1.1
2017-Nov-09 20:59N 42°23' W 071°03'1 1.1
2017-Nov-09 20:30N 42°22' W 071°03'0 0.0
2017-Nov-09 20:00N 42°22' W 071°03'0 0.0
2017-Nov-09 19:30N 42°22' W 071°03'0 0.0
2017-Nov-09 19:00N 42°22' W 071°03'0 0.0
2017-Nov-09 18:30N 42°22' W 071°03'0 0.0
2017-Nov-09 18:00N 42°22' W 071°03'0 0.0
2017-Nov-09 17:30N 42°22' W 071°03'0 0.0
2017-Nov-09 17:00N 42°22' W 071°03'0 0.0
2017-Nov-09 16:30N 42°22' W 071°03'0 0.7
2017-Nov-09 16:00N 42°23' W 071°03'0 0.4
2017-Nov-09 15:10N 42°22' W 071°03'0 0.0
2017-Nov-09 14:46N 42°22' W 071°03'0 0.0
2017-Nov-09 14:20N 42°22' W 071°03'0 0.1
2017-Nov-09 13:58N 42°22' W 071°03'0 0.1
2017-Nov-09 13:28N 42°22' W 071°03'0 0.8
2017-Nov-09 13:00N 42°23' W 071°03'0 0.0
2017-Nov-09 12:30N 42°23' W 071°03'0 0.0
2017-Nov-09 12:00N 42°23' W 071°03'0 0.9
2017-Nov-09 11:30N 42°22' W 071°03'0 0.2
2017-Nov-09 11:00N 42°22' W 071°03'0 0.0
2017-Nov-09 10:30N 42°22' W 071°03'0 0.0
2017-Nov-09 10:00N 42°22' W 071°03'0 0.0
2017-Nov-09 09:30N 42°22' W 071°03'0 0.0
2017-Nov-09 09:00N 42°22' W 071°03'0 0.0
2017-Nov-09 08:30N 42°22' W 071°03'0 0.0
2017-Nov-09 08:00N 42°22' W 071°03'0 0.0
2017-Nov-09 07:30N 42°22' W 071°03'0 0.0
2017-Nov-09 07:00N 42°22' W 071°03'0 0.0
2017-Nov-09 06:30N 42°22' W 071°03'0 0.0
2017-Nov-09 06:00N 42°22' W 071°03'0 0.0
2017-Nov-09 05:30N 42°22' W 071°03'0 0.0
2017-Nov-09 05:00N 42°22' W 071°03'  
Track history (hours):
 
Tides and Currents Weather Stations Pressure Air Temp Water Temp Dewpoint Dewpoint Depression Visibility Wind Speed Wind Dir Waves Ship Positions

Shannon Dann

Owner: Dann Ocean Towing, TAMPA, FL. More information available from US FCC via Universal Licensing System and Coast Guard Vessel Documentation Center.

Last reported at 2017-Nov-19 05:00 UTC. Time now 2017-Nov-19 05:08 UTC.
Position N 40°39' W 074°09'.

Length 30 m; draft 4 m.

Type: Tow > 200 m length. MMSI: 338533000.

Date/timePositionNaut miles runAvg speedWind from/ knotsBaromVisibWave heightAir tempDewpointWater temp
2017-Nov-19 05:00N 40°39' W 074°09'2 4.1
2017-Nov-19 04:30N 40°39' W 074°06'2 4.8
2017-Nov-19 04:00N 40°40' W 074°03'3 6.6
2017-Nov-19 03:31N 40°42' W 074°00'3 6.4
2017-Nov-19 03:00N 40°45' W 073°58'3 6.6
2017-Nov-19 02:30N 40°47' W 073°55'3 5.4
2017-Nov-19 02:00N 40°48' W 073°52'3 6.3
2017-Nov-19 01:28N 40°48' W 073°47'56 6.3
2017-Nov-18 16:35N 41°07' W 072°37'1 6.5
2017-Nov-18 16:30N 41°07' W 072°37'3 6.5
2017-Nov-18 15:59N 41°08' W 072°32'3 7.0
2017-Nov-18 15:31N 41°09' W 072°28'4 7.1
2017-Nov-18 15:00N 41°11' W 072°24'4 8.0
2017-Nov-18 14:30N 41°12' W 072°19'95 4.5
2017-Nov-17 17:12N 42°17' W 070°44'1 7.5
2017-Nov-17 17:00N 42°17' W 070°46'4 7.6
2017-Nov-17 16:30N 42°19' W 070°51'4 7.4
2017-Nov-17 16:00N 42°19' W 070°56'4 6.0
2017-Nov-17 15:22N 42°20' W 071°01'2 6.2
2017-Nov-17 15:00N 42°22' W 071°03'0 0.6
2017-Nov-17 14:31N 42°22' W 071°03'0 0.0
2017-Nov-17 14:00N 42°22' W 071°03'0 0.0
2017-Nov-17 13:30N 42°22' W 071°03'0 0.0
2017-Nov-17 13:00N 42°22' W 071°03'0 0.0
2017-Nov-17 12:31N 42°22' W 071°03'0 0.0
2017-Nov-17 12:00N 42°22' W 071°03'0 0.0
2017-Nov-17 11:30N 42°22' W 071°03'0 0.0
2017-Nov-17 11:00N 42°22' W 071°03'0 0.0
2017-Nov-17 10:30N 42°22' W 071°03'0 0.0
2017-Nov-17 10:00N 42°22' W 071°03'0 0.0
2017-Nov-17 09:30N 42°22' W 071°03'0 0.0
2017-Nov-17 09:00N 42°22' W 071°03'0 0.0
2017-Nov-17 08:30N 42°22' W 071°03'0 0.0
2017-Nov-17 08:00N 42°22' W 071°03'0 0.0
2017-Nov-17 07:30N 42°22' W 071°03'0 0.0
2017-Nov-17 07:00N 42°22' W 071°03'0 0.0
2017-Nov-17 06:30N 42°22' W 071°03'0 0.0
2017-Nov-17 06:01N 42°22' W 071°03'0 0.0
2017-Nov-17 05:31N 42°22' W 071°03'0 0.0
2017-Nov-17 05:00N 42°22' W 071°03'0 0.0
2017-Nov-17 04:31N 42°22' W 071°03'0 0.0
2017-Nov-17 04:00N 42°22' W 071°03'0 0.0
2017-Nov-17 03:31N 42°22' W 071°03'0 0.0
2017-Nov-17 03:00N 42°22' W 071°03'0 0.0
2017-Nov-17 02:31N 42°22' W 071°03'0 0.0
2017-Nov-17 02:00N 42°22' W 071°03'0 0.0
2017-Nov-17 01:30N 42°22' W 071°03'0 0.0
2017-Nov-17 01:00N 42°22' W 071°03'0 0.0
2017-Nov-17 00:30N 42°22' W 071°03'0 0.0
2017-Nov-17 00:00N 42°22' W 071°03'0 0.9
2017-Nov-16 23:31N 42°23' W 071°03'0 0.0
2017-Nov-16 22:20N 42°23' W 071°03'0 0.7
2017-Nov-16 22:01N 42°23' W 071°03'0 0.0
2017-Nov-16 21:30N 42°23' W 071°03'0 0.0
2017-Nov-16 21:01N 42°23' W 071°03'0 0.0
2017-Nov-16 20:30N 42°23' W 071°03'0 0.0
2017-Nov-16 20:01N 42°23' W 071°03'0 0.3
2017-Nov-16 19:30N 42°22' W 071°03'0 0.0
2017-Nov-16 19:01N 42°22' W 071°03'0 0.1
2017-Nov-16 18:31N 42°22' W 071°03'0 0.0
2017-Nov-16 18:00N 42°22' W 071°03'0 0.0
2017-Nov-16 17:30N 42°22' W 071°03'0 0.0
2017-Nov-16 17:01N 42°22' W 071°03'0 0.0
2017-Nov-16 16:30N 42°22' W 071°03'0 0.0
2017-Nov-16 16:00N 42°22' W 071°03'0 0.0
2017-Nov-16 15:31N 42°22' W 071°03'0 0.0
2017-Nov-16 14:57N 42°22' W 071°03'0 0.0
2017-Nov-16 14:30N 42°22' W 071°03'0 0.0
2017-Nov-16 14:00N 42°22' W 071°03'0 0.0
2017-Nov-16 13:30N 42°22' W 071°03'0 0.0
2017-Nov-16 13:00N 42°22' W 071°03'0 0.0
2017-Nov-16 12:30N 42°22' W 071°03'0 0.0
2017-Nov-16 12:00N 42°22' W 071°03'0 0.0
2017-Nov-16 11:25N 42°22' W 071°03'0 0.0
2017-Nov-16 11:00N 42°22' W 071°03'0 0.0
2017-Nov-16 10:30N 42°22' W 071°03'0 0.0
2017-Nov-16 10:00N 42°22' W 071°03'0 0.0
2017-Nov-16 09:30N 42°22' W 071°03'0 0.0
2017-Nov-16 09:01N 42°22' W 071°03'0 0.0
2017-Nov-16 08:31N 42°22' W 071°03'0 0.0
2017-Nov-16 07:59N 42°22' W 071°03'0 0.0
2017-Nov-16 07:30N 42°22' W 071°03'0 0.0
2017-Nov-16 07:00N 42°22' W 071°03'0 0.0
2017-Nov-16 06:31N 42°22' W 071°03'0 0.0
2017-Nov-16 06:00N 42°22' W 071°03'0 0.0
2017-Nov-16 05:31N 42°22' W 071°03'0 0.0
2017-Nov-16 05:01N 42°22' W 071°03'0 0.0
2017-Nov-16 04:31N 42°22' W 071°03'0 0.0
2017-Nov-16 04:01N 42°22' W 071°03'0 0.0
2017-Nov-16 03:30N 42°22' W 071°03'0 0.0
2017-Nov-16 03:00N 42°22' W 071°03'0 0.0
2017-Nov-16 02:30N 42°22' W 071°03'0 0.0
2017-Nov-16 02:00N 42°22' W 071°03'0 0.0
2017-Nov-16 01:30N 42°22' W 071°03'0 0.0
2017-Nov-16 01:00N 42°22' W 071°03'0 0.0
2017-Nov-16 00:31N 42°22' W 071°03'0 0.2
2017-Nov-16 00:00N 42°22' W 071°03'0 0.2
2017-Nov-15 23:30N 42°22' W 071°03'0 0.1
2017-Nov-15 23:01N 42°22' W 071°03'0 0.6
2017-Nov-15 22:30N 42°23' W 071°03'0 0.1
2017-Nov-15 21:43N 42°23' W 071°03'0 0.0
2017-Nov-15 21:24N 42°23' W 071°03'0 0.0
2017-Nov-15 20:17N 42°23' W 071°03'0 0.0
2017-Nov-15 19:51N 42°23' W 071°03'0 1.4
2017-Nov-15 19:30N 42°22' W 071°03'0 0.0
2017-Nov-15 19:00N 42°22' W 071°03'0 0.0
2017-Nov-15 18:30N 42°22' W 071°03'0 0.2
2017-Nov-15 18:00N 42°22' W 071°03'0 0.0
2017-Nov-15 17:31N 42°22' W 071°03'0 0.3
2017-Nov-15 16:26N 42°23' W 071°03'0 0.0
2017-Nov-15 15:58N 42°23' W 071°03'0 0.9
2017-Nov-15 15:30N 42°23' W 071°03'0 0.0
2017-Nov-15 14:58N 42°23' W 071°03'0 0.0
2017-Nov-15 14:28N 42°23' W 071°03'0 0.0
2017-Nov-15 14:00N 42°23' W 071°03'0 0.0
2017-Nov-15 13:29N 42°23' W 071°03'0 0.0
2017-Nov-15 12:59N 42°23' W 071°03'1 1.4
2017-Nov-15 12:31N 42°22' W 071°03'0 0.1
2017-Nov-15 12:00N 42°22' W 071°03'0 0.2
2017-Nov-15 11:30N 42°22' W 071°03'0 0.2
2017-Nov-15 11:00N 42°22' W 071°03'0 0.0
2017-Nov-15 10:30N 42°22' W 071°03'0 0.0
2017-Nov-15 10:00N 42°22' W 071°03'0 0.0
2017-Nov-15 09:31N 42°22' W 071°03'0 0.0
2017-Nov-15 09:00N 42°22' W 071°03'0 0.0
2017-Nov-15 08:30N 42°22' W 071°03'0 0.0
2017-Nov-15 08:01N 42°22' W 071°03'0 0.0
2017-Nov-15 07:30N 42°22' W 071°03'0 0.0
2017-Nov-15 07:00N 42°22' W 071°03'0 0.0
2017-Nov-15 06:30N 42°22' W 071°03'0 0.0
2017-Nov-15 06:00N 42°22' W 071°03'0 0.0
2017-Nov-15 05:30N 42°22' W 071°03'0 0.2
2017-Nov-15 05:00N 42°22' W 071°03'0 0.0
2017-Nov-15 04:31N 42°22' W 071°03'0 0.0
2017-Nov-15 04:00N 42°22' W 071°03'1 2.2
2017-Nov-15 03:30N 42°21' W 071°02'1 1.1
2017-Nov-15 02:58N 42°21' W 071°02'2 3.5
2017-Nov-15 02:30N 42°22' W 071°03'0 0.0
2017-Nov-15 02:00N 42°22' W 071°03'0 0.1
2017-Nov-15 01:31N 42°22' W 071°03'0 0.2
2017-Nov-15 01:00N 42°22' W 071°03'0 0.0
2017-Nov-15 00:31N 42°22' W 071°03'0 0.0
2017-Nov-15 00:00N 42°22' W 071°03'0 0.0
2017-Nov-14 23:31N 42°22' W 071°03'0 0.0
2017-Nov-14 23:00N 42°22' W 071°03'0 0.0
2017-Nov-14 22:30N 42°22' W 071°03'0 0.1
2017-Nov-14 22:00N 42°23' W 071°03'0 0.1
2017-Nov-14 19:22N 42°23' W 071°03'0 0.0
2017-Nov-14 18:03N 42°23' W 071°03'0 0.0
2017-Nov-14 17:59N 42°23' W 071°03'0 0.1
2017-Nov-14 16:38N 42°23' W 071°03'0 1.2
2017-Nov-14 16:30N 42°23' W 071°03'0 0.4
2017-Nov-14 16:00N 42°22' W 071°03'0 0.0
2017-Nov-14 15:30N 42°22' W 071°03'0 0.3
2017-Nov-14 15:00N 42°23' W 071°03'0 0.1
2017-Nov-14 14:30N 42°23' W 071°03'0 0.0
2017-Nov-14 13:57N 42°23' W 071°03'0 0.2
2017-Nov-14 13:30N 42°22' W 071°03'0 0.0
2017-Nov-14 13:00N 42°22' W 071°03'0 0.0
2017-Nov-14 12:30N 42°22' W 071°03'0 0.0
2017-Nov-14 12:00N 42°22' W 071°03'0 0.0
2017-Nov-14 11:31N 42°22' W 071°03'0 0.0
2017-Nov-14 11:01N 42°22' W 071°03'0 0.0
2017-Nov-14 10:30N 42°22' W 071°03'0 0.0
2017-Nov-14 10:00N 42°22' W 071°03'0 0.0
2017-Nov-14 09:30N 42°22' W 071°03'0 0.0
2017-Nov-14 09:00N 42°22' W 071°03'0 0.0
2017-Nov-14 08:30N 42°22' W 071°03'0 0.0
2017-Nov-14 08:01N 42°22' W 071°03'0 0.0
2017-Nov-14 07:30N 42°22' W 071°03'0 0.0
2017-Nov-14 07:00N 42°22' W 071°03'0 0.0
2017-Nov-14 06:30N 42°22' W 071°03'0 0.0
2017-Nov-14 06:00N 42°22' W 071°03'0 0.0
2017-Nov-14 05:30N 42°22' W 071°03'0 0.0
2017-Nov-14 05:00N 42°22' W 071°03'0 0.1
2017-Nov-14 04:30N 42°22' W 071°03'0 0.0
2017-Nov-14 04:00N 42°22' W 071°03'0 0.0
2017-Nov-14 03:30N 42°22' W 071°03'0 0.0
2017-Nov-14 03:00N 42°22' W 071°03'0 0.0
2017-Nov-14 02:30N 42°22' W 071°03'0 0.0
2017-Nov-14 02:00N 42°22' W 071°03'0 0.0
2017-Nov-14 01:30N 42°22' W 071°03'0 0.0
2017-Nov-14 01:00N 42°22' W 071°03'0 0.1
2017-Nov-14 00:30N 42°22' W 071°03'0 0.0
2017-Nov-14 00:00N 42°22' W 071°03'0 0.0
2017-Nov-13 23:31N 42°22' W 071°03'0 0.0
2017-Nov-13 23:00N 42°22' W 071°03'0 0.0
2017-Nov-13 22:30N 42°22' W 071°03'0 0.0
2017-Nov-13 22:00N 42°22' W 071°03'0 0.0
2017-Nov-13 02:00N 42°22' W 071°03'1 1.9
2017-Nov-13 01:26N 42°21' W 071°02'0 0.1
2017-Nov-13 01:00N 42°21' W 071°02'0 0.0
2017-Nov-13 00:30N 42°21' W 071°02'0 0.0
2017-Nov-12 23:57N 42°21' W 071°02'0 0.0
2017-Nov-12 23:29N 42°21' W 071°02'0 0.0
2017-Nov-12 22:57N 42°21' W 071°02'0 0.0
2017-Nov-12 22:30N 42°21' W 071°02'0 0.0
2017-Nov-12 22:00N 42°21' W 071°02'0 0.5
2017-Nov-12 21:03N 42°21' W 071°02'0 0.3
2017-Nov-12 20:58N 42°21' W 071°02'0 0.2
2017-Nov-12 20:28N 42°21' W 071°02'1 1.3
2017-Nov-12 20:00N 42°21' W 071°02'0 0.1
2017-Nov-12 19:27N 42°21' W 071°02'0 0.1
2017-Nov-12 19:00N 42°21' W 071°02'0 0.0
2017-Nov-12 18:30N 42°21' W 071°02'0 0.1
2017-Nov-12 18:00N 42°21' W 071°02'0 0.0
2017-Nov-12 17:30N 42°21' W 071°02'0 0.0
2017-Nov-12 17:00N 42°21' W 071°02'0 0.7
2017-Nov-12 16:28N 42°21' W 071°02'0 0.3
2017-Nov-12 15:56N 42°21' W 071°02'0 0.6
2017-Nov-12 15:14N 42°21' W 071°02'0 0.0
2017-Nov-12 14:55N 42°21' W 071°02'0 0.0
2017-Nov-12 14:26N 42°21' W 071°02'0 0.0
2017-Nov-12 13:57N 42°21' W 071°02'0 0.0
2017-Nov-12 13:30N 42°21' W 071°02'0 0.0
2017-Nov-12 12:58N 42°21' W 071°02'0 0.2
2017-Nov-12 12:29N 42°21' W 071°02'0 0.0
2017-Nov-12 12:00N 42°21' W 071°02'0 0.0
2017-Nov-12 11:29N 42°21' W 071°02'0 0.0
2017-Nov-12 10:59N 42°21' W 071°02'0 0.1
2017-Nov-12 10:29N 42°21' W 071°02'0 0.0
2017-Nov-12 10:00N 42°21' W 071°02'0 0.0
2017-Nov-12 09:30N 42°21' W 071°02'0 0.0
2017-Nov-12 09:00N 42°21' W 071°02'0 0.0
2017-Nov-12 08:30N 42°21' W 071°02'0 0.0
2017-Nov-12 08:00N 42°21' W 071°02'0 0.0
2017-Nov-12 07:29N 42°21' W 071°02'0 0.2
2017-Nov-12 06:58N 42°21' W 071°02'0 0.2
2017-Nov-12 06:30N 42°21' W 071°02'0 0.0
2017-Nov-12 06:00N 42°21' W 071°02'0 0.1
2017-Nov-12 05:30N 42°21' W 071°02'0 0.1
2017-Nov-12 05:00N 42°21' W 071°02'0 0.0
2017-Nov-12 04:30N 42°21' W 071°02'0 0.0
2017-Nov-12 04:00N 42°21' W 071°02'0 0.0
2017-Nov-12 03:30N 42°21' W 071°02'0 0.0
2017-Nov-12 03:00N 42°21' W 071°02'0 0.0
2017-Nov-12 02:30N 42°21' W 071°02'0 0.0
2017-Nov-12 02:00N 42°21' W 071°02'0 0.0
2017-Nov-12 01:30N 42°21' W 071°02'0 0.0
2017-Nov-12 01:00N 42°21' W 071°02'0 0.0
2017-Nov-12 00:30N 42°21' W 071°02'0 0.0
2017-Nov-12 00:00N 42°21' W 071°02'0 0.1
2017-Nov-11 23:30N 42°21' W 071°02'1 2.0
2017-Nov-11 22:59N 42°22' W 071°03'0 0.4
2017-Nov-11 22:30N 42°22' W 071°03'0 0.9
2017-Nov-11 22:00N 42°22' W 071°03'1 2.1
2017-Nov-11 21:30N 42°21' W 071°02'0 0.5
2017-Nov-11 21:00N 42°21' W 071°02'0 0.0
2017-Nov-11 20:31N 42°21' W 071°02'0 0.0
2017-Nov-11 19:52N 42°21' W 071°02'0 0.0
2017-Nov-11 19:30N 42°21' W 071°02'0 0.0
2017-Nov-11 18:35N 42°21' W 071°02'0 0.1
2017-Nov-11 18:29N 42°21' W 071°02'0 0.0
2017-Nov-11 18:00N 42°21' W 071°02'0 0.0
2017-Nov-11 17:18N 42°21' W 071°02'0 0.1
2017-Nov-11 16:21N 42°21' W 071°02'1 3.3
2017-Nov-11 16:00N 42°22' W 071°03'0 0.0
2017-Nov-11 15:30N 42°22' W 071°03'1 1.7
2017-Nov-11 14:50N 42°21' W 071°02'1 2.7
2017-Nov-11 14:31N 42°22' W 071°03'1 1.6
2017-Nov-11 14:00N 42°23' W 071°03'0 0.7
2017-Nov-11 13:30N 42°22' W 071°03'0 0.0
2017-Nov-11 13:00N 42°22' W 071°03'0 0.0
2017-Nov-11 12:31N 42°22' W 071°03'0 0.0
2017-Nov-11 12:00N 42°22' W 071°03'0 0.0
2017-Nov-11 11:30N 42°22' W 071°03'0 0.0
2017-Nov-11 11:00N 42°22' W 071°03'0 0.0
2017-Nov-11 10:30N 42°22' W 071°03'0 0.0
2017-Nov-11 10:00N 42°22' W 071°03'0 0.0
2017-Nov-11 09:30N 42°22' W 071°03'0 0.0
2017-Nov-11 09:00N 42°22' W 071°03'0 0.0
2017-Nov-11 08:31N 42°22' W 071°03'0 0.0
2017-Nov-11 07:59N 42°22' W 071°03'0 0.0
2017-Nov-11 07:31N 42°22' W 071°03'0 0.0
2017-Nov-11 07:00N 42°22' W 071°03'0 0.0
2017-Nov-11 06:30N 42°22' W 071°03'0 0.0
2017-Nov-11 06:00N 42°22' W 071°03'0 0.0
2017-Nov-11 05:30N 42°22' W 071°03'0 0.0
2017-Nov-11 05:00N 42°22' W 071°03'0 0.0
2017-Nov-11 04:31N 42°22' W 071°03'0 0.0
2017-Nov-11 04:00N 42°22' W 071°03'0 0.0
2017-Nov-11 03:30N 42°22' W 071°03'0 0.0
2017-Nov-11 03:00N 42°22' W 071°03'0 0.0
2017-Nov-11 02:30N 42°22' W 071°03'0 0.5
2017-Nov-11 01:59N 42°23' W 071°03'0 0.4
2017-Nov-11 01:20N 42°22' W 071°03'0 0.0
2017-Nov-11 01:00N 42°22' W 071°03'0 0.0
2017-Nov-11 00:30N 42°22' W 071°03'0 0.0
2017-Nov-11 00:00N 42°22' W 071°03'0 0.0
2017-Nov-10 23:30N 42°22' W 071°03'0 0.0
2017-Nov-10 23:00N 42°22' W 071°03'0 0.0
2017-Nov-10 22:30N 42°22' W 071°03'0 0.0
2017-Nov-10 22:00N 42°22' W 071°03'0 0.0
2017-Nov-10 21:30N 42°22' W 071°03'0 0.6
2017-Nov-10 20:59N 42°23' W 071°03'0 0.6
2017-Nov-10 20:30N 42°22' W 071°03'0 0.0
2017-Nov-10 20:00N 42°22' W 071°03'0 0.0
2017-Nov-10 19:30N 42°22' W 071°03'0 0.0
2017-Nov-10 19:00N 42°22' W 071°03'0 0.0
2017-Nov-10 18:30N 42°22' W 071°03'0 0.0
2017-Nov-10 18:00N 42°22' W 071°03'0 0.2
2017-Nov-10 17:30N 42°23' W 071°03'0 0.3
2017-Nov-10 16:58N 42°23' W 071°03'0 0.0
2017-Nov-10 16:29N 42°23' W 071°03'0 0.0
2017-Nov-10 15:48N 42°23' W 071°03'0 0.0
2017-Nov-10 15:30N 42°23' W 071°03'0 0.1
2017-Nov-10 14:58N 42°23' W 071°03'0 0.1
2017-Nov-10 14:30N 42°23' W 071°03'0 0.0
2017-Nov-10 14:00N 42°23' W 071°03'0 0.0
2017-Nov-10 13:21N 42°23' W 071°03'0 0.0
2017-Nov-10 12:42N 42°23' W 071°03'0 0.3
2017-Nov-10 12:30N 42°23' W 071°03'0 0.6
2017-Nov-10 12:01N 42°22' W 071°03'0 0.0
2017-Nov-10 11:30N 42°22' W 071°03'0 0.0
2017-Nov-10 11:00N 42°22' W 071°03'0 0.0
2017-Nov-10 10:30N 42°22' W 071°03'0 0.0
2017-Nov-10 10:00N 42°22' W 071°03'0 0.0
2017-Nov-10 09:30N 42°22' W 071°03'0 0.0
2017-Nov-10 09:01N 42°22' W 071°03'0 0.0
2017-Nov-10 08:30N 42°22' W 071°03'0 0.0
2017-Nov-10 08:00N 42°22' W 071°03'0 0.0
2017-Nov-10 07:30N 42°22' W 071°03'0 0.0
2017-Nov-10 07:00N 42°22' W 071°03'0 0.0
2017-Nov-10 06:30N 42°22' W 071°03'0 0.0
2017-Nov-10 06:00N 42°22' W 071°03'0 0.0
2017-Nov-10 05:30N 42°22' W 071°03'0 0.0
2017-Nov-10 05:00N 42°22' W 071°03'0 0.0
2017-Nov-10 04:30N 42°22' W 071°03'0 0.0
2017-Nov-10 04:00N 42°22' W 071°03'0 0.0
2017-Nov-10 03:30N 42°22' W 071°03'0 0.0
2017-Nov-10 03:00N 42°22' W 071°03'0 0.0
2017-Nov-10 02:31N 42°22' W 071°03'0 0.2
2017-Nov-10 02:00N 42°23' W 071°03'0 0.0
2017-Nov-10 01:30N 42°22' W 071°03'0 0.0
2017-Nov-10 01:00N 42°22' W 071°03'0 0.1
2017-Nov-10 00:30N 42°22' W 071°03'0 0.0
2017-Nov-10 00:00N 42°22' W 071°03'0 0.0
2017-Nov-09 23:30N 42°22' W 071°03'0 0.0
2017-Nov-09 23:00N 42°22' W 071°03'0 0.2
2017-Nov-09 22:30N 42°22' W 071°03'0 0.1
2017-Nov-09 22:00N 42°22' W 071°03'0 0.1
2017-Nov-09 21:30N 42°22' W 071°03'1 1.1
2017-Nov-09 20:59N 42°23' W 071°03'1 1.1
2017-Nov-09 20:30N 42°22' W 071°03'0 0.0
2017-Nov-09 20:00N 42°22' W 071°03'0 0.0
2017-Nov-09 19:30N 42°22' W 071°03'0 0.0
2017-Nov-09 19:00N 42°22' W 071°03'0 0.0
2017-Nov-09 18:30N 42°22' W 071°03'0 0.0
2017-Nov-09 18:00N 42°22' W 071°03'0 0.0
2017-Nov-09 17:30N 42°22' W 071°03'0 0.0
2017-Nov-09 17:00N 42°22' W 071°03'0 0.0
2017-Nov-09 16:30N 42°22' W 071°03'0 0.7
2017-Nov-09 16:00N 42°23' W 071°03'0 0.4
2017-Nov-09 15:10N 42°22' W 071°03'0 0.0
2017-Nov-09 14:46N 42°22' W 071°03'0 0.0
2017-Nov-09 14:20N 42°22' W 071°03'0 0.1
2017-Nov-09 13:58N 42°22' W 071°03'0 0.1
2017-Nov-09 13:28N 42°22' W 071°03'0 0.8
2017-Nov-09 13:00N 42°23' W 071°03'0 0.0
2017-Nov-09 12:30N 42°23' W 071°03'0 0.0
2017-Nov-09 12:00N 42°23' W 071°03'0 0.9
2017-Nov-09 11:30N 42°22' W 071°03'0 0.2
2017-Nov-09 11:00N 42°22' W 071°03'0 0.0
2017-Nov-09 10:30N 42°22' W 071°03'0 0.0
2017-Nov-09 10:00N 42°22' W 071°03'0 0.0
2017-Nov-09 09:30N 42°22' W 071°03'0 0.0
2017-Nov-09 09:00N 42°22' W 071°03'0 0.0
2017-Nov-09 08:30N 42°22' W 071°03'0 0.0
2017-Nov-09 08:00N 42°22' W 071°03'0 0.0
2017-Nov-09 07:30N 42°22' W 071°03'0 0.0
2017-Nov-09 07:00N 42°22' W 071°03'0 0.0
2017-Nov-09 06:30N 42°22' W 071°03'0 0.0
2017-Nov-09 06:00N 42°22' W 071°03'0 0.0
2017-Nov-09 05:30N 42°22' W 071°03'0 0.0
2017-Nov-09 05:00N 42°22' W 071°03'  

Dump ship's entire track history